Time;durP1;ratioP1;P1;durP2;ratioP2;P2;SDS_P1;SDS_P2;PMS_P1;PMS_P2;Temp;Humidity;BMP_temperature;BMP_pressure;BME280_temperature;BME280_humidity;BME280_pressure;Samples;Min_cycle;Max_cycle;Signal;HPM_P1;HPM_P2
2021/07/08 00:00:37;;;;;;;3.78;1.20;;;;;;;21.66;56.68;100665.66;4919046;28;97196;-90
2021/07/08 00:03:03;;;;;;;1.30;1.00;;;;;;;21.64;56.93;100672.06;4915532;28;99738;-91
2021/07/08 00:05:31;;;;;;;1.90;1.50;;;;;;;21.66;56.86;100679.00;4896277;28;101166;-90
2021/07/08 00:07:59;;;;;;;1.27;0.90;;;;;;;21.64;56.72;100667.59;4918528;28;96687;-90
2021/07/08 00:10:31;;;;;;;2.10;1.00;;;;;;;21.92;56.95;100711.78;4900026;28;96783;-92
2021/07/08 00:12:59;;;;;;;1.52;1.05;;;;;;;21.42;57.33;100638.13;4910564;28;97459;-91
2021/07/08 00:15:27;;;;;;;2.33;1.13;;;;;;;21.55;57.10;100676.28;4894965;28;101435;-92
2021/07/08 00:17:57;;;;;;;4.55;1.25;;;;;;;21.44;57.94;100663.75;4915546;28;96800;-91
2021/07/08 00:20:25;;;;;;;2.50;1.10;;;;;;;21.76;58.30;100726.41;4912691;28;97233;-91
2021/07/08 00:22:51;;;;;;;3.22;1.30;;;;;;;21.36;58.38;100659.91;4917721;28;98541;-92
2021/07/08 00:25:24;;;;;;;1.55;1.17;;;;;;;21.63;58.47;100705.94;4921026;28;98246;-92
2021/07/08 00:27:51;;;;;;;5.30;1.40;;;;;;;21.63;58.28;100708.63;4900559;28;96952;-92
2021/07/08 00:30:20;;;;;;;2.88;1.10;;;;;;;21.56;58.50;100702.03;4917576;28;96756;-94
2021/07/08 00:32:50;;;;;;;;;;;;;;;21.78;58.35;100727.16;4919664;28;101588;-91
2021/07/08 00:35:16;;;;;;;4.05;1.42;;;;;;;21.76;58.10;100716.59;4898400;28;100782;-94
2021/07/08 00:37:42;;;;;;;1.77;1.10;;;;;;;21.53;58.49;100677.38;4892972;28;96710;-93
2021/07/08 00:40:10;;;;;;;4.07;1.38;;;;;;;21.58;59.27;100710.78;4904881;28;96930;-91
2021/07/08 00:42:38;;;;;;;9.23;1.70;;;;;;;21.39;59.55;100703.28;4917172;28;100235;-91
2021/07/08 00:45:09;;;;;;;4.22;1.40;;;;;;;21.24;59.72;100649.16;4918513;28;101213;-92
2021/07/08 00:47:38;;;;;;;3.22;1.40;;;;;;;21.48;60.02;100704.41;4900015;28;96910;-91
2021/07/08 00:50:05;;;;;;;2.60;1.45;;;;;;;21.25;60.21;100674.88;4904681;28;96752;-92
2021/07/08 00:52:33;;;;;;;6.93;1.35;;;;;;;21.30;60.31;100682.56;4912323;28;98413;-90
2021/07/08 00:55:02;;;;;;;2.70;1.27;;;;;;;21.48;60.68;100715.09;4900187;28;100767;-92
2021/07/08 00:57:30;;;;;;;2.13;1.30;;;;;;;21.04;60.88;100660.44;4898879;28;97060;-92
2021/07/08 00:59:56;;;;;;;2.35;1.80;;;;;;;21.26;61.29;100721.09;4892887;28;97186;-92
2021/07/08 01:02:25;;;;;;;1.83;1.35;;;;;;;21.30;61.36;100738.63;4917679;28;101636;-92
2021/07/08 01:04:58;;;;;;;2.25;1.38;;;;;;;21.25;61.29;100717.59;4904207;28;100978;-92
2021/07/08 01:07:27;;;;;;;2.95;1.20;;;;;;;21.11;60.87;100687.53;4913421;28;96821;-91
2021/07/08 01:09:55;;;;;;;4.18;1.27;;;;;;;21.33;60.52;100719.72;4891039;28;97192;-92
2021/07/08 01:12:23;;;;;;;2.50;1.33;;;;;;;21.36;60.82;100732.00;4915800;28;100653;-93
2021/07/08 01:14:49;;;;;;;2.40;1.30;;;;;;;21.38;60.63;100738.97;4915277;28;100245;-92
2021/07/08 01:17:18;;;;;;;4.13;1.35;;;;;;;21.09;60.42;100681.44;4911377;28;96790;-93
2021/07/08 01:19:45;;;;;;;2.33;1.70;;;;;;;21.28;60.81;100721.84;4911396;28;96803;-92
2021/07/08 01:22:10;;;;;;;5.60;1.73;;;;;;;21.32;61.42;100743.84;4917584;28;101275;-91
2021/07/08 01:24:37;;;;;;;3.05;1.50;;;;;;;21.22;61.50;100725.81;4905677;28;100265;-91
2021/07/08 01:27:03;;;;;;;3.22;1.25;;;;;;;20.97;61.38;100673.38;4917200;28;96741;-91
2021/07/08 01:29:29;;;;;;;1.98;1.38;;;;;;;21.29;60.87;100688.84;4901543;28;96924;-92
2021/07/08 01:31:58;;;;;;;1.52;1.38;;;;;;;21.36;61.49;100719.53;4901791;28;101764;-91
2021/07/08 01:34:26;;;;;;;6.22;1.40;;;;;;;21.07;61.25;100662.88;4914615;28;98229;-91
2021/07/08 01:36:52;;;;;;;5.47;1.40;;;;;;;21.14;61.62;100695.31;4901130;28;97076;-92
2021/07/08 01:39:19;;;;;;;1.70;1.10;;;;;;;20.97;61.76;100668.03;4908373;28;96890;-92
2021/07/08 01:41:47;;;;;;;2.80;1.60;;;;;;;21.23;61.96;100724.88;4915521;28;101260;-91
2021/07/08 01:44:13;;;;;;;2.85;1.50;;;;;;;20.84;61.39;100661.03;4898798;28;99892;-93
2021/07/08 01:46:39;;;;;;;1.83;1.33;;;;;;;21.07;61.18;100684.22;4904448;28;96908;-91
2021/07/08 01:49:06;;;;;;;4.85;1.67;;;;;;;21.20;60.95;100697.53;4905073;28;96992;-92
2021/07/08 01:51:34;;;;;;;1.75;1.42;;;;;;;21.22;61.28;100711.63;4917748;28;101356;-90
2021/07/08 01:54:01;;;;;;;3.95;1.40;;;;;;;21.29;61.10;100725.38;4908326;28;101545;-91
2021/07/08 01:56:27;;;;;;;3.88;1.63;;;;;;;21.15;61.08;100679.19;4929642;28;96715;-92
2021/07/08 01:58:54;;;;;;;3.75;1.40;;;;;;;21.07;61.46;100670.03;4912662;28;97206;-92
2021/07/08 02:01:20;;;;;;;2.13;1.40;;;;;;;21.18;61.39;100673.63;4900870;28;100384;-93
2021/07/08 02:03:46;;;;;;;4.53;2.13;;;;;;;20.90;61.51;100640.09;4914560;28;101253;-92
2021/07/08 02:06:14;;;;;;;1.88;1.58;;;;;;;20.80;62.12;100639.06;4908593;28;97070;-91
2021/07/08 02:08:41;;;;;;;2.13;1.52;;;;;;;21.06;61.75;100668.31;4920865;28;96914;-91
2021/07/08 02:11:09;;;;;;;7.43;1.70;;;;;;;21.06;62.10;100703.00;4901005;28;100403;-91
2021/07/08 02:13:35;;;;;;;3.40;1.67;;;;;;;20.85;61.86;100665.38;4900895;28;101387;-91
2021/07/08 02:16:06;;;;;;;2.28;1.40;;;;;;;20.82;61.97;100673.59;4905817;28;97217;-92
2021/07/08 02:18:35;;;;;;;3.83;1.65;;;;;;;20.98;61.98;100719.59;4900659;28;96970;-92
2021/07/08 02:21:07;;;;;;;3.97;1.65;;;;;;;20.68;62.09;100664.78;4911339;28;100449;-92
2021/07/08 02:23:32;;;;;;;2.05;1.35;;;;;;;20.93;62.34;100724.41;4913695;28;98316;-91
2021/07/08 02:26:01;;;;;;;2.97;1.50;;;;;;;20.68;62.15;100671.91;4901833;28;97291;-92
2021/07/08 02:28:27;;;;;;;2.22;1.48;;;;;;;21.02;62.07;100723.72;4901522;28;96673;-91
2021/07/08 02:30:53;;;;;;;4.05;1.50;;;;;;;20.53;62.86;100660.50;4885155;28;101258;-91
2021/07/08 02:33:19;;;;;;;3.67;1.75;;;;;;;20.42;62.96;100660.38;4913438;28;96733;-93
2021/07/08 02:35:45;;;;;;;3.40;1.58;;;;;;;20.47;62.73;100655.59;4907746;28;96604;-91
2021/07/08 02:38:16;;;;;;;5.28;1.70;;;;;;;20.67;62.87;100681.72;4899577;28;96964;-92
2021/07/08 02:40:42;;;;;;;4.00;1.92;;;;;;;20.50;62.80;100669.53;4916894;28;100509;-91
2021/07/08 02:43:11;;;;;;;4.25;1.60;;;;;;;20.51;63.10;100673.09;4901078;28;101077;-91
2021/07/08 02:45:39;;;;;;;1.63;1.35;;;;;;;20.61;63.15;100702.66;4892018;28;97078;-92
2021/07/08 02:48:08;;;;;;;3.08;1.85;;;;;;;20.52;63.04;100704.13;4913699;28;97305;-92
2021/07/08 02:50:34;;;;;;;3.97;1.85;;;;;;;20.50;63.11;100695.38;4896801;28;99688;-92
2021/07/08 02:53:04;;;;;;;8.32;1.80;;;;;;;20.40;62.90;100694.31;4914484;28;101268;-91
2021/07/08 02:55:29;;;;;;;2.83;1.70;;;;;;;20.26;62.96;100664.13;4913545;28;96841;-92
2021/07/08 02:57:55;;;;;;;4.32;1.60;;;;;;;20.50;63.58;100700.69;4904173;28;97131;-92
2021/07/08 03:00:23;;;;;;;2.55;1.77;;;;;;;20.48;63.56;100683.97;4922204;28;101425;-92
2021/07/08 03:02:49;;;;;;;4.28;1.92;;;;;;;20.52;63.67;100664.13;4890804;28;100928;-92
2021/07/08 03:05:15;;;;;;;4.22;1.80;;;;;;;20.42;63.91;100661.25;4916805;28;96763;-92
2021/07/08 03:07:49;;;;;;;3.60;1.80;;;;;;;20.37;63.82;100646.53;4900159;28;97161;-91
2021/07/08 03:10:20;;;;;;;1.98;1.40;;;;;;;20.44;63.47;100638.00;4899016;28;101163;-92
2021/07/08 03:12:46;;;;;;;4.40;1.52;;;;;;;20.58;63.70;100658.38;4901014;28;100821;-92
2021/07/08 03:15:21;;;;;;;5.28;2.13;;;;;;;20.51;63.97;100663.28;4914348;28;96961;-92
2021/07/08 03:17:47;;;;;;;4.07;2.00;;;;;;;20.50;63.78;100666.88;4909946;28;96787;-93
2021/07/08 03:20:18;;;;;;;4.00;2.05;;;;;;;20.39;64.13;100661.47;4929198;28;98526;-92
2021/07/08 03:22:50;;;;;;;10.15;3.05;;;;;;;20.46;64.09;100672.56;4906336;28;100667;-92
2021/07/08 03:25:20;;;;;;;6.55;1.83;;;;;;;20.52;64.00;100688.13;4913162;28;97127;-93
2021/07/08 03:27:46;;;;;;;4.70;1.90;;;;;;;20.53;63.89;100697.84;4908044;28;97016;-93
2021/07/08 03:30:18;;;;;;;4.63;2.00;;;;;;;20.35;63.79;100663.47;4933691;28;102085;-92
2021/07/08 03:32:45;;;;;;;2.35;1.60;;;;;;;20.34;63.48;100651.13;4908677;28;100116;-92
2021/07/08 03:35:11;;;;;;;3.20;2.10;;;;;;;20.56;63.45;100690.47;4912729;28;96907;-92
2021/07/08 03:37:37;;;;;;;2.72;1.80;;;;;;;20.70;63.19;100707.34;4907235;28;97459;-92
2021/07/08 03:40:07;;;;;;;3.28;1.92;;;;;;;20.82;63.11;100718.97;4917960;28;100337;-92
2021/07/08 03:42:35;;;;;;;4.88;1.98;;;;;;;20.75;63.23;100711.41;4907187;28;100330;-91
2021/07/08 03:45:04;;;;;;;4.30;1.80;;;;;;;20.73;63.13;100717.78;4924888;28;96733;-92
2021/07/08 03:47:30;;;;;;;5.05;1.67;;;;;;;20.71;63.09;100696.59;4901508;28;96884;-92
2021/07/08 03:49:56;;;;;;;4.10;1.77;;;;;;;20.48;63.16;100666.16;4922954;28;98497;-91
2021/07/08 03:52:21;;;;;;;2.13;1.40;;;;;;;20.64;63.23;100695.28;4899201;28;101120;-91
2021/07/08 03:54:47;;;;;;;4.32;1.48;;;;;;;20.53;63.03;100668.50;4900107;28;97164;-91
2021/07/08 03:57:13;;;;;;;2.72;1.83;;;;;;;20.43;63.11;100640.78;4899923;28;96979;-91
2021/07/08 03:59:39;;;;;;;3.78;1.83;;;;;;;20.55;63.19;100663.94;4886846;28;100970;-91
2021/07/08 04:02:08;;;;;;;6.03;1.73;;;;;;;20.86;63.66;100723.97;4899407;28;101445;-91
2021/07/08 04:04:38;;;;;;;4.40;1.80;;;;;;;20.93;63.46;100719.06;4906457;28;97019;-90
2021/07/08 04:07:05;;;;;;;5.00;2.13;;;;;;;20.85;63.67;100705.41;4917500;28;96641;-91
2021/07/08 04:09:33;;;;;;;4.53;1.63;;;;;;;20.57;63.21;100656.69;4907285;28;98051;-91
2021/07/08 04:12:04;;;;;;;4.45;1.92;;;;;;;20.70;63.58;100692.19;4914800;28;97334;-91
2021/07/08 04:14:30;;;;;;;5.88;2.30;;;;;;;20.39;63.58;100636.59;4898286;28;96934;-91
2021/07/08 04:16:55;;;;;;;2.75;1.70;;;;;;;20.74;63.43;100690.16;4898948;28;97167;-91
2021/07/08 04:19:21;;;;;;;6.18;2.03;;;;;;;20.58;63.29;100666.38;4888747;28;101287;-93
2021/07/08 04:21:47;;;;;;;6.57;1.92;;;;;;;20.78;63.48;100695.16;4930423;28;100248;-91
2021/07/08 04:24:12;;;;;;;13.55;2.50;;;;;;;20.49;63.89;100662.53;4930357;28;97856;-92
2021/07/08 04:26:38;;;;;;;4.85;2.85;;;;;;;20.69;63.80;100676.31;4903268;28;97569;-91
2021/07/08 04:29:06;;;;;;;5.35;2.53;;;;;;;20.72;63.57;100687.59;4888250;28;100247;-91
2021/07/08 04:31:35;;;;;;;4.93;2.92;;;;;;;20.67;63.64;100684.41;4919458;28;100965;-91
2021/07/08 04:34:01;;;;;;;7.45;3.30;;;;;;;20.50;63.44;100645.56;4915652;28;96702;-91
2021/07/08 04:36:26;;;;;;;7.03;3.45;;;;;;;20.45;63.54;100649.50;4897874;28;97023;-91
2021/07/08 04:38:53;;;;;;;5.95;3.10;;;;;;;20.85;63.42;100679.56;4930818;28;100148;-90
2021/07/08 04:41:20;;;;;;;3.95;2.97;;;;;;;20.50;63.58;100655.38;4894916;28;101556;-93
2021/07/08 04:43:46;;;;;;;5.97;3.60;;;;;;;20.60;63.25;100666.28;4906422;28;96666;-91
2021/07/08 04:46:12;;;;;;;8.43;3.75;;;;;;;20.84;63.28;100706.38;4899557;28;96740;-92
2021/07/08 04:48:38;;;;;;;6.25;3.17;;;;;;;20.52;63.22;100653.47;4902213;28;101408;-91
2021/07/08 04:51:04;;;;;;;4.45;4.00;;;;;;;20.71;63.08;100690.38;4922284;28;98338;-91
2021/07/08 04:53:30;;;;;;;5.28;3.40;;;;;;;20.80;63.39;100717.25;4922314;28;96684;-91
2021/07/08 04:55:56;;;;;;;6.85;3.88;;;;;;;20.73;63.27;100693.78;4924175;28;96768;-91
2021/07/08 04:58:21;;;;;;;8.05;5.20;;;;;;;20.28;63.23;100630.22;4891514;28;101660;-92
2021/07/08 05:00:47;;;;;;;6.47;4.32;;;;;;;20.69;63.22;100689.66;4906602;28;100183;-92
2021/07/08 05:03:13;;;;;;;5.72;4.20;;;;;;;20.77;63.37;100708.63;4902031;28;97011;-92
2021/07/08 05:05:38;;;;;;;4.55;3.72;;;;;;;20.74;63.58;100709.69;4911745;28;97155;-91
2021/07/08 05:08:05;;;;;;;10.27;3.65;;;;;;;20.79;63.24;100688.00;4923834;28;101009;-91
2021/07/08 05:10:31;;;;;;;7.45;3.60;;;;;;;20.94;63.21;100710.97;4909216;28;100129;-90
2021/07/08 05:12:57;;;;;;;7.28;3.88;;;;;;;20.60;63.06;100655.63;4902633;28;96856;-91
2021/07/08 05:15:22;;;;;;;8.73;3.88;;;;;;;20.54;62.88;100628.44;4914987;28;96979;-92
2021/07/08 05:17:49;;;;;;;5.25;4.05;;;;;;;20.87;63.01;100680.31;4908467;28;100320;-91
2021/07/08 05:20:16;;;;;;;8.15;4.30;;;;;;;20.63;63.02;100658.06;4915442;28;98387;-92
2021/07/08 05:22:43;;;;;;;5.85;4.20;;;;;;;20.92;62.69;100686.19;4888915;28;96916;-90
2021/07/08 05:25:12;;;;;;;5.90;3.70;;;;;;;20.87;62.62;100676.81;4899078;28;97044;-90
2021/07/08 05:27:38;;;;;;;5.43;4.13;;;;;;;20.93;62.73;100682.56;4909668;28;101189;-90
2021/07/08 05:30:05;;;;;;;6.15;4.05;;;;;;;20.99;63.00;100702.59;4937608;28;98337;-90
2021/07/08 05:32:31;;;;;;;4.57;4.07;;;;;;;21.05;62.84;100703.97;4910110;28;97135;-90
2021/07/08 05:34:57;;;;;;;7.80;3.80;;;;;;;21.07;62.77;100681.56;4900222;28;96952;-90
2021/07/08 05:37:22;;;;;;;5.65;4.63;;;;;;;21.11;62.63;100679.53;4901097;28;101590;-91
2021/07/08 05:39:48;;;;;;;7.28;4.28;;;;;;;21.01;62.77;100656.16;4921266;28;101418;-90
2021/07/08 05:42:14;;;;;;;6.97;3.95;;;;;;;21.20;62.39;100676.19;4913526;28;96656;-90
2021/07/08 05:44:39;;;;;;;6.35;4.63;;;;;;;21.30;62.03;100687.06;4917242;28;97017;-90
2021/07/08 05:47:05;;;;;;;8.23;5.25;;;;;;;21.30;61.84;100684.38;4912567;28;101071;-90
2021/07/08 05:49:31;;;;;;;5.78;4.13;;;;;;;21.39;61.88;100687.25;4907936;28;101392;-90
2021/07/08 05:51:56;;;;;;;6.72;4.07;;;;;;;21.31;61.81;100654.03;4917495;28;96969;-88
2021/07/08 05:54:22;;;;;;;6.28;3.95;;;;;;;21.66;61.47;100687.03;4901085;28;96883;-92
2021/07/08 05:56:47;;;;;;;9.25;4.30;;;;;;;21.81;61.33;100701.03;4896337;28;101733;-89
2021/07/08 05:59:13;;;;;;;6.38;3.90;;;;;;;21.75;61.50;100676.63;4911438;28;101270;-89
2021/07/08 06:01:38;;;;;;;6.20;3.92;;;;;;;21.81;61.20;100692.19;4894515;28;96948;-88
2021/07/08 06:04:04;;;;;;;5.05;3.72;;;;;;;21.87;60.94;100692.56;4901689;28;97114;-89
2021/07/08 06:06:30;;;;;;;9.48;4.70;;;;;;;22.20;59.99;100720.44;4919344;28;101178;-89
2021/07/08 06:08:55;;;;;;;7.93;4.82;;;;;;;22.01;60.29;100725.41;4931061;28;98357;-89
2021/07/08 06:11:21;;;;;;;6.47;4.90;;;;;;;21.80;60.11;100703.84;4913432;28;97371;-89
2021/07/08 06:13:46;;;;;;;8.23;4.50;;;;;;;21.69;60.58;100721.50;4932417;28;97319;-89
2021/07/08 06:16:12;;;;;;;7.68;5.10;;;;;;;21.56;60.83;100690.50;4910811;28;101476;-89
2021/07/08 06:18:38;;;;;;;11.23;4.80;;;;;;;21.74;61.03;100733.69;4913862;28;100571;-90
2021/07/08 06:21:06;;;;;;;8.45;4.45;;;;;;;21.69;61.22;100726.00;4897305;28;96949;-89
2021/07/08 06:23:32;;;;;;;9.55;3.60;;;;;;;21.67;61.43;100726.16;4916430;28;96925;-89
2021/07/08 06:25:58;;;;;;;7.30;4.70;;;;;;;21.66;61.32;100727.09;4903988;28;100756;-89
2021/07/08 06:28:24;;;;;;;11.02;5.50;;;;;;;21.44;60.86;100671.75;4903568;28;101054;-92
2021/07/08 06:30:50;;;;;;;6.15;4.55;;;;;;;21.58;61.20;100724.13;4903771;28;96902;-89
2021/07/08 06:33:16;;;;;;;8.38;4.65;;;;;;;21.87;60.99;100737.16;4929295;28;97490;-89
2021/07/08 06:35:41;;;;;;;6.90;4.30;;;;;;;21.81;61.08;100734.94;4908266;28;103340;-89
2021/07/08 06:38:07;;;;;;;9.23;5.45;;;;;;;21.80;60.72;100711.88;4912621;28;97952;-88
2021/07/08 06:40:33;;;;;;;7.72;5.10;;;;;;;22.06;60.84;100726.78;4901648;28;97052;-82
2021/07/08 06:43:00;;;;;;;7.97;4.30;;;;;;;22.29;60.17;100738.44;4915105;28;96932;-82
2021/07/08 06:45:25;;;;;;;11.85;5.63;;;;;;;22.18;60.18;100718.84;4923885;28;98069;-80
2021/07/08 06:47:52;;;;;;;10.50;6.82;;;;;;;22.41;59.87;100741.97;4896861;28;101317;-82
2021/07/08 06:50:19;;;;;;;8.75;6.55;;;;;;;22.17;59.70;100709.09;4903987;28;98332;-81
2021/07/08 06:52:45;;;;;;;10.93;6.38;;;;;;;22.10;60.44;100740.75;4904288;28;97337;-82
2021/07/08 06:55:11;;;;;;;10.38;5.90;;;;;;;;;;4922751;28;98661;-81
2021/07/08 06:57:40;;;;;;;7.20;5.22;;;;;;;21.70;61.53;100747.28;4929015;28;101115;-81
2021/07/08 07:00:06;;;;;;;7.50;5.13;;;;;;;21.87;61.27;100734.47;4907097;28;97246;-81
2021/07/08 07:02:32;;;;;;;7.03;5.32;;;;;;;21.99;61.00;100728.22;4922278;28;96745;-81
2021/07/08 07:04:58;;;;;;;8.07;5.75;;;;;;;21.99;61.50;100728.22;4922975;28;97491;-81
2021/07/08 07:07:23;;;;;;;9.07;4.65;;;;;;;22.21;60.78;100703.41;4903879;28;101181;-80
2021/07/08 07:09:49;;;;;;;10.70;5.20;;;;;;;22.55;60.13;100712.34;4909191;28;96776;-81
2021/07/08 07:12:15;;;;;;;7.40;4.57;;;;;;;22.97;58.82;100701.91;4902830;28;96777;-81
2021/07/08 07:14:40;;;;;;;9.02;5.10;;;;;;;23.42;57.75;100696.50;4888554;28;101749;-81
2021/07/08 07:17:06;;;;;;;11.32;5.30;;;;;;;23.45;57.53;100709.66;4899860;28;98347;-82
2021/07/08 07:19:32;;;;;;;13.07;5.15;;;;;;;23.54;57.81;100716.06;4898004;28;96690;-82
2021/07/08 07:22:00;;;;;;;6.03;4.53;;;;;;;23.56;57.53;100727.53;4898850;28;96933;-82
2021/07/08 07:24:26;;;;;;;7.35;4.32;;;;;;;23.38;58.12;100734.38;4916168;28;98017;-81
2021/07/08 07:26:51;;;;;;;11.48;4.60;;;;;;;23.26;58.39;100742.41;4912254;28;98920;-82
2021/07/08 07:29:17;;;;;;;9.30;5.50;;;;;;;23.14;58.53;100745.25;4906165;28;97203;-82
2021/07/08 07:31:42;;;;;;;14.85;5.30;;;;;;;22.83;59.17;100744.94;4884506;28;97319;-82
2021/07/08 07:34:09;;;;;;;8.82;5.00;;;;;;;22.59;59.91;100742.38;4930496;28;97976;-83
2021/07/08 07:36:35;;;;;;;9.15;5.20;;;;;;;22.58;59.70;100738.00;4888172;28;101152;-82
2021/07/08 07:39:01;;;;;;;10.68;5.95;;;;;;;22.57;59.49;100707.75;4924215;28;97198;-83
2021/07/08 07:41:26;;;;;;;10.95;5.63;;;;;;;22.67;59.68;100715.03;4901976;28;97303;-90
2021/07/08 07:43:52;;;;;;;7.85;5.30;;;;;;;22.48;60.45;100716.44;4898000;28;101134;-83
2021/07/08 07:46:17;;;;;;;12.02;6.07;;;;;;;22.42;60.56;100700.03;4896595;28;100310;-84
2021/07/08 07:48:44;;;;;;;11.27;6.05;;;;;;;22.67;60.26;100709.69;4904568;28;97155;-84
2021/07/08 07:51:10;;;;;;;7.97;5.60;;;;;;;22.83;59.55;100692.31;4914334;28;98012;-87
2021/07/08 07:53:36;;;;;;;11.95;6.07;;;;;;;22.86;59.63;100677.78;4888574;28;100330;-86
2021/07/08 07:56:01;;;;;;;18.10;6.63;;;;;;;22.96;59.64;100683.31;4886792;28;101275;-85
2021/07/08 07:58:27;;;;;;;14.07;7.10;;;;;;;23.14;59.16;100689.00;4889517;28;96829;-84
2021/07/08 08:00:56;;;;;;;11.68;7.00;;;;;;;23.17;58.99;100692.28;4926988;28;96929;-85
2021/07/08 08:03:22;;;;;;;13.77;6.25;;;;;;;23.23;59.14;100696.28;4895569;28;100452;-84
2021/07/08 08:08:34;;;;;;;9.15;6.43;;;;;;;23.06;58.91;100697.66;4906615;28;96873;-85
2021/07/08 08:11:00;;;;;;;9.25;6.13;;;;;;;23.10;58.95;100699.13;4895928;28;96949;-86
2021/07/08 08:13:26;;;;;;;10.73;5.90;;;;;;;23.15;58.55;100670.13;4887573;28;101139;-83
2021/07/08 08:15:52;;;;;;;6.97;5.55;;;;;;;23.33;58.41;100685.66;4916619;28;98897;-85
2021/07/08 08:18:19;;;;;;;8.95;6.35;;;;;;;23.37;58.59;100685.31;4907890;28;97110;-86
2021/07/08 08:20:46;;;;;;;8.13;6.90;;;;;;;23.32;58.26;100695.53;4888835;28;98158;-86
2021/07/08 08:23:12;;;;;;;11.60;6.10;;;;;;;23.13;58.90;100690.84;4904037;28;100155;-85
2021/07/08 08:25:38;;;;;;;13.00;5.55;;;;;;;23.28;58.92;100718.19;4891916;28;101297;-86
2021/07/08 08:28:04;;;;;;;12.10;6.70;;;;;;;23.16;59.09;100720.03;4916816;28;97320;-86
2021/07/08 08:30:29;;;;;;;10.27;6.07;;;;;;;23.03;58.99;100705.94;4905851;28;97070;-82
2021/07/08 08:32:55;;;;;;;7.07;6.35;;;;;;;23.02;59.54;100728.31;4895771;28;100338;-87
2021/07/08 08:35:21;;;;;;;8.60;5.85;;;;;;;22.92;60.01;100728.19;4930181;28;97331;-85
2021/07/08 08:37:48;;;;;;;8.73;6.55;;;;;;;22.96;59.35;100729.66;4905548;28;96802;-83
2021/07/08 08:40:15;;;;;;;10.73;6.72;;;;;;;22.90;59.68;100737.31;4907284;28;96813;-85
2021/07/08 08:42:45;;;;;;;13.05;7.82;;;;;;;22.85;59.50;100745.69;4904333;28;101456;-83
2021/07/08 08:45:20;;;;;;;12.93;6.38;;;;;;;22.94;59.16;100726.22;4904150;28;98536;-83
2021/07/08 08:48:03;;;;;;;14.60;5.90;;;;;;;23.12;59.01;100731.97;4896153;28;97246;-84
2021/07/08 08:50:35;;;;;;;6.38;5.78;;;;;;;22.98;59.30;100745.59;4941384;28;96888;-84
2021/07/08 08:53:01;;;;;;;10.20;5.88;;;;;;;22.81;60.02;100753.13;4903744;28;98432;-83
2021/07/08 08:55:27;;;;;;;6.55;5.40;;;;;;;22.79;60.02;100725.63;4900260;28;101165;-83
2021/07/08 08:57:53;;;;;;;13.00;5.63;;;;;;;23.05;59.84;100741.47;4903775;28;96795;-83
2021/07/08 09:00:24;;;;;;;7.97;5.30;;;;;;;23.23;59.67;100739.97;4891081;28;97355;-83
2021/07/08 09:03:09;;;;;;;9.07;4.57;;;;;;;23.42;59.27;100734.00;4938883;28;101169;-84
2021/07/08 09:05:37;;;;;;;9.27;4.80;;;;;;;23.55;58.67;100724.97;4903771;28;101528;-84
2021/07/08 09:08:10;;;;;;;12.40;5.30;;;;;;;23.59;58.33;100718.34;4914266;28;97038;-82
2021/07/08 09:10:36;;;;;;;7.30;4.97;;;;;;;23.75;58.43;100742.94;4896818;28;97580;-84
2021/07/08 09:13:02;;;;;;;13.40;6.05;;;;;;;23.71;58.52;100736.16;4903701;28;101180;-84
2021/07/08 09:15:28;;;;;;;11.10;4.65;;;;;;;23.80;58.46;100739.91;4919807;28;97846;-83
2021/07/08 09:17:54;;;;;;;9.23;4.68;;;;;;;23.79;58.16;100727.47;4908556;28;96985;-83
2021/07/08 09:20:20;;;;;;;7.70;5.53;;;;;;;23.77;57.97;100745.53;4892354;28;96907;-84
2021/07/08 09:22:46;;;;;;;6.10;4.75;;;;;;;23.73;58.17;100740.38;4923039;28;97354;-83
2021/07/08 09:25:25;;;;;;;9.57;5.93;;;;;;;23.54;58.36;100736.66;4910239;28;98111;-83
2021/07/08 09:28:13;;;;;;;7.43;5.60;;;;;;;23.30;58.90;100729.66;4922058;28;97340;-85
2021/07/08 09:30:39;;;;;;;11.40;6.18;;;;;;;23.35;58.77;100748.00;4904652;28;96902;-84
2021/07/08 09:33:29;;;;;;;9.27;6.43;;;;;;;23.44;58.58;100745.41;4896637;28;100208;-85
2021/07/08 09:36:12;;;;;;;10.27;6.90;;;;;;;23.33;58.62;100748.16;4908830;28;100698;-83
2021/07/08 09:38:41;;;;;;;9.45;7.05;;;;;;;23.45;58.44;100738.25;4911109;28;96846;-86
2021/07/08 09:41:11;;;;;;;7.40;6.53;;;;;;;23.30;59.02;100740.38;4888982;28;97180;-85
2021/07/08 09:43:38;;;;;;;7.37;5.90;;;;;;;23.27;59.29;100733.44;4891059;28;101601;-83
2021/07/08 09:46:05;;;;;;;9.27;5.28;;;;;;;23.68;58.17;100718.47;4905509;28;101186;-83
2021/07/08 09:48:31;;;;;;;11.38;4.78;;;;;;;24.04;57.35;100708.34;4923612;28;97191;-84
2021/07/08 09:50:56;;;;;;;9.30;5.72;;;;;;;24.34;56.93;100706.72;4905970;28;97009;-81
2021/07/08 09:53:26;;;;;;;8.98;5.82;;;;;;;24.22;56.86;100705.94;4911702;28;97446;-80
2021/07/08 09:58:56;;;;;;;11.40;5.53;;;;;;;25.36;53.91;100690.66;4924146;28;97247;-81
2021/07/08 10:01:22;;;;;;;8.32;6.18;;;;;;;25.44;53.94;100706.94;4924420;28;97012;-81
2021/07/08 10:03:49;;;;;;;10.85;6.13;;;;;;;25.41;54.13;100713.44;4906172;28;98138;-82
2021/07/08 10:06:15;;;;;;;9.18;4.90;;;;;;;25.36;54.45;100714.81;4913352;28;97990;-81
2021/07/08 10:08:41;;;;;;;7.88;5.60;;;;;;;25.32;54.57;100733.06;4897134;28;97087;-80
2021/07/08 10:11:09;;;;;;;12.50;6.18;;;;;;;25.19;54.86;100713.66;4893538;28;97433;-83
2021/07/08 10:13:35;;;;;;;12.70;5.75;;;;;;;25.07;55.02;100699.44;4916741;28;101008;-82
2021/07/08 10:16:04;;;;;;;8.55;5.55;;;;;;;25.23;54.81;100683.69;4913667;28;97416;-81
2021/07/08 10:18:31;;;;;;;11.48;5.93;;;;;;;25.40;54.33;100681.34;4884827;28;96896;-85
2021/07/08 10:20:58;;;;;;;9.85;5.95;;;;;;;25.71;53.92;100666.78;4924193;28;97439;-81
2021/07/08 10:23:32;;;;;;;8.18;5.25;;;;;;;25.88;53.19;100673.31;4901405;28;101120;-83
2021/07/08 10:25:59;;;;;;;5.50;5.00;;;;;;;25.30;54.43;100673.25;4916949;28;101277;-86
2021/07/08 10:28:25;;;;;;;8.60;4.70;;;;;;;25.41;54.60;100680.34;4947485;28;97470;-79
2021/07/08 10:30:51;;;;;;;8.80;6.15;;;;;;;25.43;54.83;100683.75;4931119;28;97374;-81
2021/07/08 10:33:22;;;;;;;9.13;5.35;;;;;;;25.40;54.61;100675.97;4914736;28;98086;-81
2021/07/08 10:35:49;;;;;;;6.18;4.65;;;;;;;25.38;54.48;100668.03;4908230;28;98224;-80
2021/07/08 10:38:34;;;;;;;6.47;5.43;;;;;;;24.94;55.85;100672.84;4922197;28;96914;-80
2021/07/08 10:41:22;;;;;;;7.43;4.95;;;;;;;24.73;55.74;100658.66;4912094;28;97201;-80
2021/07/08 10:43:48;;;;;;;5.90;5.28;;;;;;;24.81;56.06;100645.38;4910192;28;98029;-81
2021/07/08 10:46:16;;;;;;;7.70;4.35;;;;;;;24.66;56.27;100631.50;4895142;28;100733;-79
2021/07/08 10:48:50;;;;;;;9.40;4.20;;;;;;;24.70;55.85;100641.00;4894753;28;97331;-81
2021/07/08 10:51:18;;;;;;;5.40;4.65;;;;;;;24.68;56.00;100659.03;4910309;28;97358;-81
2021/07/08 10:53:46;;;;;;;7.82;4.22;;;;;;;24.79;56.57;100676.91;4925207;28;98638;-81
2021/07/08 10:56:14;;;;;;;7.10;4.88;;;;;;;24.85;56.23;100673.66;4911922;28;97938;-84
2021/07/08 10:58:47;;;;;;;5.22;4.20;;;;;;;24.60;56.33;100681.19;4904679;28;96882;-81
2021/07/08 11:01:22;;;;;;;5.32;4.05;;;;;;;24.83;56.08;100672.94;4911338;28;97441;-82
2021/07/08 11:03:49;;;;;;;6.20;4.78;;;;;;;24.85;56.20;100661.09;4918644;28;98350;-81
2021/07/08 11:06:35;;;;;;;7.03;4.43;;;;;;;24.99;56.34;100651.81;4909276;28;98282;-82
2021/07/08 11:09:19;;;;;;;8.65;4.93;;;;;;;24.72;56.71;100656.94;4895556;28;97215;-81
2021/07/08 11:11:50;;;;;;;7.47;4.07;;;;;;;24.81;56.60;100638.19;4902416;28;97359;-81
2021/07/08 11:14:19;;;;;;;8.98;3.83;;;;;;;24.95;56.19;100628.06;4929401;28;98242;-81
2021/07/08 11:16:50;;;;;;;10.70;4.93;;;;;;;24.70;56.94;100640.13;4925371;28;101228;-82
2021/07/08 11:19:36;;;;;;;8.35;4.53;;;;;;;24.22;58.17;100636.19;4902917;28;96832;-83
2021/07/08 11:22:24;;;;;;;7.30;4.57;;;;;;;24.16;57.98;100634.03;4904844;28;96963;-82
2021/07/08 11:24:51;;;;;;;5.18;4.68;;;;;;;24.47;57.41;100651.06;4901236;28;98612;-82
2021/07/08 11:27:23;;;;;;;6.05;4.25;;;;;;;24.67;56.98;100641.25;4888980;28;101178;-81
2021/07/08 11:29:55;;;;;;;8.65;4.15;;;;;;;24.53;57.20;100625.53;4917261;28;97202;-81